createdAt,value
2022-09-28T00:04:15.928Z,11.51
2022-09-28T00:09:17.937Z,11.53
2022-09-28T00:14:20.644Z,11.55
2022-09-28T00:19:22.525Z,11.53
2022-09-28T00:24:27.717Z,11.51
2022-09-28T00:29:34.672Z,11.51
2022-09-28T00:34:41.278Z,11.48
2022-09-28T00:39:43.507Z,11.44
2022-09-28T00:44:56.186Z,11.42
2022-09-28T00:50:03.603Z,11.41
2022-09-28T00:55:11.617Z,11.38
2022-09-28T01:00:14.576Z,11.34
2022-09-28T01:05:18.174Z,11.23
2022-09-28T01:10:19.915Z,11.11
2022-09-28T01:15:23.185Z,11.05
2022-09-28T01:20:41.283Z,10.93
2022-09-28T01:26:10.313Z,10.90
2022-09-28T01:31:17.430Z,10.89
2022-09-28T01:36:25.907Z,10.88
2022-09-28T01:41:31.724Z,10.84
2022-09-28T01:46:42.200Z,10.83
2022-09-28T01:51:53.686Z,10.78
2022-09-28T01:57:05.796Z,10.80
2022-09-28T02:02:16.911Z,10.68
2022-09-28T02:07:24.342Z,10.66
2022-09-28T02:12:43.373Z,10.71
2022-09-28T02:17:45.952Z,10.72
2022-09-28T02:23:01.829Z,10.79
2022-09-28T02:28:10.014Z,10.81
2022-09-28T02:33:51.685Z,10.82
2022-09-28T02:38:54.253Z,10.87
2022-09-28T02:44:26.360Z,10.88
2022-09-28T02:49:37.114Z,10.93
2022-09-28T02:55:16.567Z,10.90
2022-09-28T03:00:21.702Z,10.88
2022-09-28T03:05:37.577Z,10.85
2022-09-28T03:10:56.219Z,10.84
2022-09-28T03:16:15.603Z,10.80
2022-09-28T03:21:19.209Z,10.76
2022-09-28T03:26:20.832Z,10.79
2022-09-28T03:31:24.783Z,10.82
2022-09-28T03:36:26.825Z,10.81
2022-09-28T03:41:28.850Z,10.80
2022-09-28T03:46:30.754Z,10.75
2022-09-28T03:51:37.781Z,10.65
2022-09-28T03:56:40.739Z,10.60
2022-09-28T04:01:42.414Z,10.62
2022-09-28T04:06:44.707Z,10.60
2022-09-28T04:12:02.902Z,10.59
2022-09-28T04:17:07.238Z,10.59
2022-09-28T04:22:09.569Z,10.61
2022-09-28T04:27:31.517Z,10.60
2022-09-28T04:32:35.190Z,10.53
2022-09-28T04:37:36.999Z,10.51
2022-09-28T04:42:38.678Z,10.44
2022-09-28T04:47:40.353Z,10.40
2022-09-28T04:52:44.876Z,10.34
2022-09-28T04:57:46.622Z,10.26
2022-09-28T05:02:48.675Z,10.23
2022-09-28T05:08:26.231Z,10.18
2022-09-28T05:13:28.956Z,10.26
2022-09-28T05:18:31.345Z,10.32
2022-09-28T05:23:37.774Z,10.45
2022-09-28T05:28:39.738Z,10.39
2022-09-28T05:33:59.971Z,10.39
2022-09-28T05:39:03.979Z,10.49
2022-09-28T05:44:05.969Z,10.65
2022-09-28T05:49:07.621Z,10.81
2022-09-28T05:54:09.321Z,10.95
2022-09-28T05:59:16.627Z,11.00
2022-09-28T06:04:18.586Z,11.14
2022-09-28T06:09:26.234Z,11.29
2022-09-28T06:14:36.432Z,11.44
2022-09-28T06:19:39.191Z,11.58
2022-09-28T06:25:19.656Z,11.72
2022-09-28T06:30:22.366Z,11.86
2022-09-28T06:35:26.063Z,12.02
2022-09-28T06:40:28.494Z,12.21
2022-09-28T06:45:30.847Z,12.39
2022-09-28T06:50:46.360Z,12.62
2022-09-28T06:56:02.587Z,12.87
2022-09-28T07:01:05.897Z,12.97
2022-09-28T07:06:18.316Z,12.92
2022-09-28T07:11:41.697Z,12.97
2022-09-28T07:17:10.132Z,13.14
2022-09-28T07:22:08.100Z,13.29
2022-09-28T07:27:10.191Z,13.35
2022-09-28T07:37:59.514Z,13.20
2022-09-28T07:43:07.901Z,13.28
2022-09-28T07:48:09.769Z,13.17
2022-09-28T07:53:31.931Z,12.75
2022-09-28T07:59:09.021Z,12.60
2022-09-28T08:04:33.957Z,12.36
2022-09-28T08:09:35.902Z,12.30
2022-09-28T08:14:56.588Z,12.46
2022-09-28T08:20:27.658Z,12.57
2022-09-28T08:25:29.661Z,12.72
2022-09-28T08:30:31.793Z,13.14
2022-09-28T08:36:01.638Z,13.47
2022-09-28T08:41:43.740Z,13.78
2022-09-28T08:47:05.708Z,13.75
2022-09-28T08:52:30.040Z,13.90
2022-09-28T08:58:10.828Z,13.82
2022-09-28T09:03:15.042Z,14.00
2022-09-28T09:08:25.950Z,13.90
2022-09-28T09:13:47.610Z,13.97
2022-09-28T09:19:16.411Z,14.33
2022-09-28T09:24:45.293Z,14.56
2022-09-28T09:29:56.261Z,14.85
2022-09-28T09:35:05.599Z,15.21
2022-09-28T09:40:44.774Z,15.36
2022-09-28T09:46:07.970Z,15.58
2022-09-28T09:51:45.070Z,15.77
2022-09-28T09:56:55.028Z,15.77
2022-09-28T10:02:28.688Z,16.12
2022-09-28T10:07:46.542Z,16.42
2022-09-28T10:12:52.332Z,16.58
2022-09-28T10:17:59.041Z,16.71
2022-09-28T10:23:33.845Z,16.69
2022-09-28T10:28:48.656Z,16.83
2022-09-28T10:33:53.253Z,16.94
2022-09-28T10:38:55.912Z,16.98
2022-09-28T10:44:08.878Z,17.15
2022-09-28T10:49:18.772Z,17.42
2022-09-28T10:54:31.536Z,17.54
2022-09-28T10:59:42.062Z,17.26
2022-09-28T11:05:01.802Z,17.22
2022-09-28T11:10:20.155Z,17.08
2022-09-28T11:15:27.729Z,17.10
2022-09-28T11:20:35.721Z,17.05
2022-09-28T11:25:41.194Z,17.00
2022-09-28T11:30:52.667Z,17.04
2022-09-28T11:36:13.576Z,17.06
2022-09-28T11:41:39.648Z,17.01
2022-09-28T11:47:08.382Z,17.11
2022-09-28T11:52:25.349Z,17.08
2022-09-28T11:57:32.372Z,17.07
2022-09-28T12:02:45.373Z,17.26
2022-09-28T12:07:59.005Z,17.42
2022-09-28T12:13:25.369Z,17.62
2022-09-28T12:18:30.446Z,17.57
2022-09-28T12:23:35.788Z,17.60
2022-09-28T12:28:53.457Z,17.57
2022-09-28T12:33:55.133Z,17.60
2022-09-28T12:39:40.830Z,17.68
2022-09-28T12:44:40.866Z,17.69
2022-09-28T12:55:36.114Z,17.67
2022-09-28T13:01:02.904Z,17.74
2022-09-28T13:06:33.657Z,17.76
2022-09-28T13:11:51.884Z,17.71
2022-09-28T13:17:16.450Z,17.75
2022-09-28T13:22:30.173Z,17.74
2022-09-28T13:27:40.668Z,17.79
2022-09-28T13:32:44.121Z,17.75
2022-09-28T13:37:46.208Z,17.71
2022-09-28T13:42:47.718Z,17.70
2022-09-28T13:48:20.520Z,17.67
2022-09-28T13:53:25.342Z,17.62
2022-09-28T13:58:43.420Z,17.73
2022-09-28T14:04:16.569Z,17.74
2022-09-28T14:09:41.594Z,17.74
2022-09-28T14:14:51.672Z,17.73
2022-09-28T14:20:04.832Z,17.70
2022-09-28T14:25:30.402Z,17.68
2022-09-28T14:30:43.812Z,17.66
2022-09-28T14:36:02.140Z,17.71
2022-09-28T14:41:15.800Z,17.67
2022-09-28T14:46:17.485Z,17.78
2022-09-28T14:51:31.699Z,17.80
2022-09-28T14:56:39.196Z,17.76
2022-09-28T15:01:43.770Z,17.72
2022-09-28T15:06:50.540Z,17.70
2022-09-28T15:11:57.517Z,17.61
2022-09-28T15:17:02.899Z,17.62
2022-09-28T15:22:17.170Z,17.56
2022-09-28T15:27:19.479Z,17.60
2022-09-28T15:32:25.864Z,17.59
2022-09-28T15:37:39.629Z,17.55
2022-09-28T15:42:44.716Z,17.48
2022-09-28T15:47:46.751Z,17.47
2022-09-28T15:52:59.086Z,17.43
2022-09-28T15:58:21.372Z,17.38
2022-09-28T16:03:29.817Z,17.27
2022-09-28T16:08:48.989Z,17.24
2022-09-28T16:13:56.169Z,17.19
2022-09-28T16:19:00.785Z,17.14
2022-09-28T16:24:03.321Z,17.05
2022-09-28T16:29:25.778Z,16.97
2022-09-28T16:34:29.068Z,16.94
2022-09-28T16:39:30.869Z,16.89
2022-09-28T16:44:35.831Z,16.84
2022-09-28T16:49:39.789Z,16.77
2022-09-28T16:54:59.908Z,16.72
2022-09-28T17:00:02.178Z,16.65
2022-09-28T17:05:06.482Z,16.63
2022-09-28T17:10:49.792Z,16.59
2022-09-28T17:15:55.492Z,16.57
2022-09-28T17:20:59.029Z,16.52
2022-09-28T17:26:02.051Z,16.50
2022-09-28T17:31:04.191Z,16.45
2022-09-28T17:36:06.762Z,16.38
2022-09-28T17:41:20.492Z,16.34
2022-09-28T17:46:30.684Z,16.27
2022-09-28T17:51:35.154Z,16.21
2022-09-28T17:56:36.904Z,16.19
2022-09-28T18:01:39.697Z,16.15
2022-09-28T18:06:42.583Z,16.09
2022-09-28T18:11:46.056Z,16.05
2022-09-28T18:16:48.517Z,16.03
2022-09-28T18:21:50.087Z,15.99
2022-09-28T18:26:51.720Z,15.93
2022-09-28T18:31:53.308Z,15.88
2022-09-28T18:36:55.168Z,15.84
2022-09-28T18:41:57.195Z,15.82
2022-09-28T18:47:00.167Z,15.79
2022-09-28T18:52:01.898Z,15.76
2022-09-28T18:57:05.313Z,15.69
2022-09-28T19:02:07.061Z,15.71
2022-09-28T19:07:08.998Z,15.65
2022-09-28T19:12:11.909Z,15.63
2022-09-28T19:17:13.699Z,15.55
2022-09-28T19:22:15.500Z,15.48
2022-09-28T19:27:17.458Z,15.46
2022-09-28T19:32:19.188Z,15.43
2022-09-28T19:37:20.986Z,15.39
2022-09-28T19:42:22.588Z,15.40
2022-09-28T19:47:24.396Z,15.40
2022-09-28T19:52:26.167Z,15.38
2022-09-28T19:57:30.522Z,15.42
2022-09-28T20:02:34.073Z,15.38
2022-09-28T20:07:36.751Z,15.33
2022-09-28T20:12:38.746Z,15.28
2022-09-28T20:17:40.484Z,15.23
2022-09-28T20:22:43.969Z,15.24
2022-09-28T20:27:46.027Z,15.18
2022-09-28T20:32:49.679Z,15.12
2022-09-28T20:37:51.388Z,15.09
2022-09-28T20:42:52.969Z,15.02
2022-09-28T20:47:54.521Z,14.98
2022-09-28T20:52:56.229Z,14.83
2022-09-28T20:58:02.329Z,14.82
2022-09-28T21:03:04.035Z,14.82
2022-09-28T21:08:05.838Z,14.81
2022-09-28T21:13:08.752Z,14.82
2022-09-28T21:18:10.341Z,14.74
2022-09-28T21:23:12.155Z,14.68
2022-09-28T21:28:15.693Z,14.65
2022-09-28T21:33:17.383Z,14.61
2022-09-28T21:38:19.019Z,14.54
2022-09-28T21:43:20.599Z,14.53
2022-09-28T21:48:24.013Z,14.54
2022-09-28T21:53:29.004Z,14.46
2022-09-28T21:58:33.321Z,14.47
2022-09-28T22:03:36.445Z,14.42
2022-09-28T22:08:39.044Z,14.45
2022-09-28T22:13:41.617Z,14.43
2022-09-28T22:18:43.955Z,14.35
2022-09-28T22:23:45.953Z,14.32
2022-09-28T22:28:53.000Z,14.25
2022-09-28T22:33:55.413Z,14.16
2022-09-28T22:38:58.242Z,14.09
2022-09-28T22:44:00.384Z,14.01
2022-09-28T22:49:02.173Z,14.00
2022-09-28T22:54:04.043Z,13.98
2022-09-28T22:59:05.709Z,13.98
2022-09-28T23:04:09.134Z,13.95
2022-09-28T23:09:10.796Z,13.95
2022-09-28T23:14:12.685Z,13.94
2022-09-28T23:19:14.373Z,13.87
2022-09-28T23:24:16.383Z,13.81
2022-09-28T23:29:18.147Z,13.75
2022-09-28T23:34:19.886Z,13.67
2022-09-28T23:39:21.649Z,13.58
2022-09-28T23:44:23.580Z,13.47
2022-09-28T23:49:25.364Z,13.44
2022-09-28T23:54:27.021Z,13.39
2022-09-28T23:59:28.629Z,13.30
